Liberty of The Seas — C6VQ8 — position and weather

sailwx.info

Track history (hours):
 
Tides and Currents Weather Stations Pressure Air Temp Water Temp Dewpoint Dewpoint Depression Visibility Wind Speed Wind Dir Waves Ship Positions

Liberty of The Seas

Last reported at 2016-May-27 17:33 UTC. Time now 2016-May-27 18:08 UTC.
Position N 20°29' W 086°59'.

Type: Passenger vessel. MMSI: 309436000.

Date/timePositionNaut miles runAvg speedWind from/ knotsBaromVisibWave heightAir tempDewpointWater temp
2016-May-27 17:33N 20°29' W 086°59'0 0.0
2016-May-27 16:33N 20°29' W 086°59'0 0.0
2016-May-27 15:33N 20°29' W 086°59'0 0.0
2016-May-27 14:33N 20°29' W 086°59'0 0.0
2016-May-27 13:33N 20°29' W 086°59'0 0.0
2016-May-27 12:33N 20°29' W 086°59'1 0.6
2016-May-27 11:34N 20°29' W 086°59'9 8.8
2016-May-27 10:33N 20°22' W 087°04'  
2016-May-22 23:13N 29°09' W 094°25'1015.1
2016-May-22 22:33N 29°14' W 094°34'1212.0
2016-May-22 21:33N 29°20' W 094°46'1 0.1
2016-May-22 10:31N 29°20' W 094°47'  
2016-May-17 21:33N 20°36' W 086°57'7 6.8
2016-May-17 20:31N 20°29' W 086°59'0 0.0
2016-May-17 19:31N 20°29' W 086°59'0 0.0
2016-May-17 18:31N 20°29' W 086°59'  
Track history (hours):
 
Tides and Currents Weather Stations Pressure Air Temp Water Temp Dewpoint Dewpoint Depression Visibility Wind Speed Wind Dir Waves Ship Positions

Liberty of The Seas

Last reported at 2016-May-27 17:33 UTC. Time now 2016-May-27 18:08 UTC.
Position N 20°29' W 086°59'.

Type: Passenger vessel. MMSI: 309436000.

Date/timePositionNaut miles runAvg speedWind from/ knotsBaromVisibWave heightAir tempDewpointWater temp
2016-May-27 17:33N 20°29' W 086°59'0 0.0
2016-May-27 16:33N 20°29' W 086°59'0 0.0
2016-May-27 15:33N 20°29' W 086°59'0 0.0
2016-May-27 14:33N 20°29' W 086°59'0 0.0
2016-May-27 13:33N 20°29' W 086°59'0 0.0
2016-May-27 12:33N 20°29' W 086°59'1 0.6
2016-May-27 11:34N 20°29' W 086°59'9 8.8
2016-May-27 10:33N 20°22' W 087°04'  
2016-May-22 23:13N 29°09' W 094°25'1015.1
2016-May-22 22:33N 29°14' W 094°34'1212.0
2016-May-22 21:33N 29°20' W 094°46'1 0.1
2016-May-22 10:31N 29°20' W 094°47'  
2016-May-17 21:33N 20°36' W 086°57'7 6.8
2016-May-17 20:31N 20°29' W 086°59'0 0.0
2016-May-17 19:31N 20°29' W 086°59'0 0.0
2016-May-17 18:31N 20°29' W 086°59'  

Dump ship's entire track history